AAY8194 KFNT-KSFB
Flight info
| Callsign | AAY8194 |
|---|---|
| Flight time | N/A |
| Altitude | 37000 |
| Route | HHRNT DELOW APE HVQ QUIWE Q93 GIPPL Q85 LPERD TTHOR3 |
| Aircraft | A320/M-SDE3FGHIRWY/LB1 |
Departure
| Time | N/A |
|---|---|
| Airport | Bishop International Airport (KFNT) |
Arrival
| Time | 2026-04-29 03:03 |
|---|---|
| Airport | Orlando Sanford International Airport (KSFB) |
| Time | Latitude | Longitude | Altitude | Speed | Heading |
|---|---|---|---|---|---|
| 2026-04-29 01:50 | 36.74284 | -81.66858 | 37095 ft | 450 kts | 189° |
| 2026-04-29 01:50 | 36.71159 | -81.66665 | 37092 ft | 450 kts | 189° |
| 2026-04-29 01:50 | 36.64907 | -81.66280 | 37110 ft | 450 kts | 189° |
| 2026-04-29 01:51 | 36.58647 | -81.65897 | 37133 ft | 450 kts | 189° |
| 2026-04-29 01:51 | 36.52400 | -81.65506 | 37148 ft | 450 kts | 189° |
| 2026-04-29 01:52 | 36.46149 | -81.65121 | 37161 ft | 449 kts | 189° |
| 2026-04-29 01:52 | 36.39902 | -81.64742 | 37164 ft | 450 kts | 189° |
| 2026-04-29 01:53 | 36.33655 | -81.64361 | 37152 ft | 450 kts | 189° |
| 2026-04-29 01:53 | 36.27397 | -81.63982 | 37133 ft | 450 kts | 189° |
| 2026-04-29 01:54 | 36.21147 | -81.63602 | 37109 ft | 450 kts | 189° |
| 2026-04-29 01:54 | 36.14885 | -81.63225 | 37085 ft | 450 kts | 189° |
| 2026-04-29 01:55 | 36.08671 | -81.62852 | 37109 ft | 450 kts | 189° |
| 2026-04-29 01:55 | 36.02411 | -81.62471 | 37138 ft | 451 kts | 189° |
| 2026-04-29 01:56 | 35.96149 | -81.62087 | 37167 ft | 451 kts | 188° |
| 2026-04-29 01:56 | 35.89882 | -81.61703 | 37189 ft | 451 kts | 188° |
| 2026-04-29 01:57 | 35.83616 | -81.61326 | 37192 ft | 451 kts | 188° |
| 2026-04-29 01:57 | 35.77348 | -81.60948 | 37190 ft | 451 kts | 188° |
| 2026-04-29 01:58 | 35.71083 | -81.60573 | 37183 ft | 451 kts | 188° |
| 2026-04-29 01:58 | 35.64818 | -81.60202 | 37156 ft | 451 kts | 188° |
| 2026-04-29 01:59 | 35.58550 | -81.59825 | 37100 ft | 451 kts | 188° |
| 2026-04-29 01:59 | 35.52279 | -81.59451 | 37105 ft | 451 kts | 188° |
| 2026-04-29 02:00 | 35.46003 | -81.59075 | 37126 ft | 451 kts | 188° |
| 2026-04-29 02:00 | 35.39728 | -81.58706 | 37140 ft | 452 kts | 188° |
| 2026-04-29 02:01 | 35.33446 | -81.58326 | 37147 ft | 452 kts | 188° |
| 2026-04-29 02:01 | 35.27152 | -81.57952 | 37146 ft | 453 kts | 187° |
| 2026-04-29 02:02 | 35.20857 | -81.57573 | 37146 ft | 453 kts | 187° |
| 2026-04-29 02:02 | 35.14555 | -81.57194 | 37135 ft | 453 kts | 188° |
| 2026-04-29 02:03 | 35.08252 | -81.56829 | 37128 ft | 454 kts | 188° |
| 2026-04-29 02:03 | 35.01936 | -81.56455 | 37123 ft | 454 kts | 187° |
| 2026-04-29 02:04 | 34.95623 | -81.56082 | 37121 ft | 454 kts | 181° |
| 2026-04-29 02:04 | 34.89346 | -81.55715 | 37137 ft | 455 kts | 187° |
| 2026-04-29 02:05 | 34.83022 | -81.55342 | 37134 ft | 455 kts | 187° |
| 2026-04-29 02:05 | 34.76694 | -81.54971 | 37131 ft | 456 kts | 187° |
| 2026-04-29 02:06 | 34.70359 | -81.54598 | 37128 ft | 456 kts | 187° |
| 2026-04-29 02:06 | 34.64019 | -81.54224 | 37123 ft | 456 kts | 187° |
| 2026-04-29 02:07 | 34.57674 | -81.53851 | 37135 ft | 457 kts | 187° |
| 2026-04-29 02:07 | 34.51321 | -81.53483 | 37148 ft | 457 kts | 186° |
| 2026-04-29 02:08 | 34.44958 | -81.53104 | 37162 ft | 458 kts | 186° |
| 2026-04-29 02:08 | 34.38593 | -81.52734 | 37172 ft | 458 kts | 186° |
| 2026-04-29 02:09 | 34.32220 | -81.52371 | 37181 ft | 459 kts | 186° |
| 2026-04-29 02:09 | 34.25839 | -81.52006 | 37176 ft | 459 kts | 186° |
| 2026-04-29 02:10 | 34.19493 | -81.51632 | 37167 ft | 460 kts | 186° |
| 2026-04-29 02:10 | 34.13096 | -81.51260 | 37150 ft | 460 kts | 186° |
| 2026-04-29 02:11 | 34.06689 | -81.50893 | 37135 ft | 461 kts | 186° |
| 2026-04-29 02:11 | 34.00278 | -81.50523 | 37119 ft | 462 kts | 185° |
| 2026-04-29 02:12 | 33.93851 | -81.50122 | 37113 ft | 464 kts | 184° |
| 2026-04-29 02:12 | 33.87395 | -81.49356 | 37123 ft | 468 kts | 181° |
| 2026-04-29 02:13 | 33.80928 | -81.48355 | 37131 ft | 469 kts | 180° |
| 2026-04-29 02:13 | 33.74452 | -81.47393 | 37147 ft | 468 kts | 181° |
| 2026-04-29 02:14 | 33.67981 | -81.46525 | 37145 ft | 468 kts | 181° |
| 2026-04-29 02:14 | 33.61503 | -81.45746 | 37147 ft | 467 kts | 182° |
| 2026-04-29 02:15 | 33.55037 | -81.45253 | 37141 ft | 465 kts | 184° |
| 2026-04-29 02:15 | 33.48570 | -81.44864 | 37134 ft | 465 kts | 184° |
| 2026-04-29 02:16 | 33.42103 | -81.44424 | 37149 ft | 466 kts | 183° |
| 2026-04-29 02:16 | 33.35627 | -81.43942 | 37156 ft | 466 kts | 183° |
| 2026-04-29 02:17 | 33.29147 | -81.43456 | 37162 ft | 466 kts | 183° |
| 2026-04-29 02:17 | 33.22671 | -81.42973 | 37164 ft | 467 kts | 182° |
| 2026-04-29 02:18 | 33.16185 | -81.42489 | 37162 ft | 467 kts | 182° |
| 2026-04-29 02:18 | 33.09700 | -81.42012 | 37150 ft | 467 kts | 182° |
| 2026-04-29 02:19 | 33.03214 | -81.41539 | 37150 ft | 467 kts | 182° |
| 2026-04-29 02:19 | 32.96725 | -81.41064 | 37152 ft | 467 kts | 182° |
| 2026-04-29 02:20 | 32.90273 | -81.40592 | 37147 ft | 468 kts | 182° |
| 2026-04-29 02:20 | 32.83778 | -81.40118 | 37141 ft | 468 kts | 182° |
| 2026-04-29 02:21 | 32.77278 | -81.39647 | 37148 ft | 468 kts | 181° |
| 2026-04-29 02:21 | 32.70774 | -81.39170 | 37156 ft | 468 kts | 181° |
| 2026-04-29 02:22 | 32.64268 | -81.38696 | 37158 ft | 468 kts | 181° |
| 2026-04-29 02:22 | 32.57761 | -81.38222 | 37155 ft | 469 kts | 181° |
| 2026-04-29 02:23 | 32.51250 | -81.37757 | 37146 ft | 469 kts | 181° |
| 2026-04-29 02:23 | 32.44739 | -81.37291 | 37135 ft | 469 kts | 181° |
| 2026-04-29 02:24 | 32.38232 | -81.36820 | 37125 ft | 469 kts | 181° |
| 2026-04-29 02:25 | 32.28459 | -81.36099 | 37140 ft | 469 kts | 181° |
| 2026-04-29 02:25 | 32.21941 | -81.35632 | 37147 ft | 469 kts | 181° |
| 2026-04-29 02:26 | 32.15424 | -81.35170 | 37151 ft | 469 kts | 181° |
| 2026-04-29 02:26 | 32.08905 | -81.34709 | 37153 ft | 470 kts | 180° |
| 2026-04-29 02:27 | 32.02377 | -81.34234 | 37144 ft | 470 kts | 180° |
| 2026-04-29 02:27 | 31.95849 | -81.33765 | 37119 ft | 470 kts | 180° |
| 2026-04-29 02:28 | 31.89359 | -81.33296 | 37115 ft | 471 kts | 180° |
| 2026-04-29 02:28 | 31.82820 | -81.32823 | 37125 ft | 471 kts | 180° |
| 2026-04-29 02:29 | 31.76277 | -81.32358 | 37095 ft | 472 kts | 180° |
| 2026-04-29 02:29 | 31.73004 | -81.32130 | 36836 ft | 472 kts | 180° |
| 2026-04-29 02:29 | 31.69727 | -81.31898 | 36579 ft | 471 kts | 180° |
| 2026-04-29 02:29 | 31.66458 | -81.31663 | 36327 ft | 470 kts | 180° |
| 2026-04-29 02:30 | 31.63193 | -81.31428 | 36082 ft | 470 kts | 179° |
| 2026-04-29 02:30 | 31.59933 | -81.31199 | 35829 ft | 469 kts | 179° |
| 2026-04-29 02:30 | 31.56674 | -81.30975 | 35595 ft | 469 kts | 179° |
| 2026-04-29 02:30 | 31.53416 | -81.30746 | 35357 ft | 468 kts | 179° |
| 2026-04-29 02:31 | 31.50166 | -81.30514 | 35112 ft | 468 kts | 179° |
| 2026-04-29 02:31 | 31.46922 | -81.30277 | 34879 ft | 467 kts | 179° |
| 2026-04-29 02:31 | 31.43678 | -81.30045 | 34647 ft | 467 kts | 179° |
| 2026-04-29 02:31 | 31.40436 | -81.29818 | 34415 ft | 466 kts | 179° |
| 2026-04-29 02:32 | 31.37204 | -81.29592 | 34186 ft | 466 kts | 178° |
| 2026-04-29 02:32 | 31.33970 | -81.29364 | 33929 ft | 465 kts | 178° |
| 2026-04-29 02:32 | 31.30737 | -81.29132 | 33662 ft | 466 kts | 178° |
| 2026-04-29 02:32 | 31.27502 | -81.28900 | 33402 ft | 467 kts | 178° |
| 2026-04-29 02:33 | 31.25354 | -81.28747 | 33232 ft | 467 kts | 178° |
| 2026-04-29 02:33 | 31.22107 | -81.28520 | 32974 ft | 468 kts | 178° |
| 2026-04-29 02:33 | 31.18854 | -81.28295 | 32715 ft | 469 kts | 178° |
| 2026-04-29 02:33 | 31.15596 | -81.28130 | 32464 ft | 468 kts | 180° |
| 2026-04-29 02:34 | 31.12345 | -81.28074 | 32212 ft | 467 kts | 181° |
| 2026-04-29 02:34 | 31.09103 | -81.28094 | 31965 ft | 465 kts | 182° |
| 2026-04-29 02:34 | 31.05872 | -81.28146 | 31712 ft | 464 kts | 182° |
| 2026-04-29 02:34 | 31.02647 | -81.28196 | 31471 ft | 463 kts | 182° |
| 2026-04-29 02:35 | 30.99431 | -81.28227 | 31225 ft | 462 kts | 182° |
| 2026-04-29 02:35 | 30.96223 | -81.28233 | 30981 ft | 461 kts | 181° |
| 2026-04-29 02:35 | 30.93021 | -81.28221 | 30744 ft | 459 kts | 181° |
| 2026-04-29 02:35 | 30.89830 | -81.28202 | 30507 ft | 458 kts | 181° |
| 2026-04-29 02:36 | 30.86643 | -81.28182 | 30270 ft | 457 kts | 181° |
| 2026-04-29 02:36 | 30.83470 | -81.28168 | 30011 ft | 456 kts | 181° |
| 2026-04-29 02:36 | 30.80305 | -81.28158 | 29746 ft | 454 kts | 181° |
| 2026-04-29 02:36 | 30.77149 | -81.28151 | 29473 ft | 453 kts | 181° |
| 2026-04-29 02:37 | 30.74004 | -81.28146 | 29204 ft | 451 kts | 181° |
| 2026-04-29 02:37 | 30.70867 | -81.28140 | 28938 ft | 450 kts | 181° |
| 2026-04-29 02:37 | 30.67741 | -81.28131 | 28673 ft | 448 kts | 181° |
| 2026-04-29 02:37 | 30.64634 | -81.28122 | 28348 ft | 443 kts | 181° |
| 2026-04-29 02:38 | 30.61579 | -81.28113 | 28090 ft | 437 kts | 181° |
| 2026-04-29 02:38 | 30.58549 | -81.28086 | 27832 ft | 434 kts | 180° |
| 2026-04-29 02:38 | 30.55537 | -81.27980 | 27575 ft | 433 kts | 179° |
| 2026-04-29 02:38 | 30.52529 | -81.27816 | 27318 ft | 432 kts | 178° |
| 2026-04-29 02:39 | 30.49534 | -81.27627 | 27067 ft | 431 kts | 178° |
| 2026-04-29 02:39 | 30.46548 | -81.27437 | 26821 ft | 429 kts | 178° |
| 2026-04-29 02:39 | 30.43568 | -81.27259 | 26575 ft | 428 kts | 178° |
| 2026-04-29 02:39 | 30.40592 | -81.27092 | 26334 ft | 427 kts | 178° |
| 2026-04-29 02:40 | 30.37639 | -81.26934 | 25951 ft | 422 kts | 179° |
| 2026-04-29 02:40 | 30.34714 | -81.26786 | 25430 ft | 419 kts | 179° |
| 2026-04-29 02:40 | 30.31852 | -81.26646 | 24926 ft | 416 kts | 179° |
| 2026-04-29 02:40 | 30.28968 | -81.26507 | 24434 ft | 413 kts | 179° |
| 2026-04-29 02:41 | 30.26104 | -81.26365 | 23929 ft | 412 kts | 179° |
| 2026-04-29 02:41 | 30.23233 | -81.26205 | 23291 ft | 413 kts | 178° |
| 2026-04-29 02:41 | 30.20367 | -81.26027 | 22729 ft | 411 kts | 178° |
| 2026-04-29 02:41 | 30.17517 | -81.25842 | 22184 ft | 409 kts | 178° |
| 2026-04-29 02:42 | 30.14682 | -81.25659 | 21594 ft | 408 kts | 178° |
| 2026-04-29 02:42 | 30.11849 | -81.25479 | 21009 ft | 408 kts | 178° |
| 2026-04-29 02:42 | 30.09017 | -81.25302 | 20419 ft | 408 kts | 178° |
| 2026-04-29 02:42 | 30.06186 | -81.25130 | 19860 ft | 407 kts | 178° |
| 2026-04-29 02:43 | 30.03363 | -81.24959 | 19310 ft | 406 kts | 178° |
| 2026-04-29 02:43 | 30.00540 | -81.24787 | 18766 ft | 406 kts | 178° |
| 2026-04-29 02:43 | 29.97720 | -81.24609 | 18179 ft | 406 kts | 178° |
| 2026-04-29 02:43 | 29.94905 | -81.24432 | 17610 ft | 404 kts | 178° |
| 2026-04-29 02:44 | 29.92106 | -81.24258 | 17062 ft | 402 kts | 178° |
| 2026-04-29 02:44 | 29.89318 | -81.24114 | 16521 ft | 400 kts | 179° |
| 2026-04-29 02:44 | 29.86541 | -81.24010 | 16053 ft | 397 kts | 180° |
| 2026-04-29 02:44 | 29.83796 | -81.23923 | 15435 ft | 390 kts | 180° |
| 2026-04-29 02:45 | 29.81127 | -81.23839 | 14891 ft | 378 kts | 180° |
| 2026-04-29 02:45 | 29.78515 | -81.23757 | 14375 ft | 373 kts | 180° |
| 2026-04-29 02:45 | 29.75930 | -81.23673 | 13912 ft | 371 kts | 180° |
| 2026-04-29 02:45 | 29.73355 | -81.23583 | 13398 ft | 370 kts | 180° |
| 2026-04-29 02:46 | 29.70784 | -81.23490 | 12887 ft | 369 kts | 180° |
| 2026-04-29 02:46 | 29.68224 | -81.23395 | 12390 ft | 367 kts | 179° |
| 2026-04-29 02:46 | 29.65687 | -81.23302 | 12039 ft | 361 kts | 179° |
| 2026-04-29 02:46 | 29.63205 | -81.23186 | 11796 ft | 353 kts | 178° |
| 2026-04-29 02:47 | 29.60765 | -81.23048 | 11555 ft | 349 kts | 178° |
| 2026-04-29 02:47 | 29.58345 | -81.22904 | 11320 ft | 347 kts | 178° |
| 2026-04-29 02:47 | 29.55959 | -81.22760 | 11080 ft | 339 kts | 177° |
| 2026-04-29 02:47 | 29.53627 | -81.22620 | 10847 ft | 332 kts | 177° |
| 2026-04-29 02:48 | 29.51347 | -81.22486 | 10632 ft | 324 kts | 177° |
| 2026-04-29 02:48 | 29.49122 | -81.22360 | 10445 ft | 316 kts | 177° |
| 2026-04-29 02:48 | 29.46950 | -81.22239 | 10260 ft | 309 kts | 177° |
| 2026-04-29 02:48 | 29.44819 | -81.22121 | 10065 ft | 305 kts | 177° |
| 2026-04-29 02:49 | 29.42703 | -81.22006 | 9846 ft | 303 kts | 177° |
| 2026-04-29 02:49 | 29.40601 | -81.21893 | 9595 ft | 302 kts | 177° |
| 2026-04-29 02:49 | 29.38535 | -81.21783 | 9346 ft | 301 kts | 177° |
| 2026-04-29 02:49 | 29.36449 | -81.21671 | 9096 ft | 299 kts | 177° |
| 2026-04-29 02:50 | 29.34345 | -81.21571 | 8844 ft | 298 kts | 178° |
| 2026-04-29 02:50 | 29.32308 | -81.21484 | 8593 ft | 297 kts | 178° |
| 2026-04-29 02:50 | 29.30248 | -81.21401 | 8343 ft | 295 kts | 178° |
| 2026-04-29 02:50 | 29.28197 | -81.21321 | 8109 ft | 294 kts | 178° |
| 2026-04-29 02:51 | 29.26157 | -81.21242 | 7864 ft | 293 kts | 177° |
| 2026-04-29 02:51 | 29.24128 | -81.21158 | 7626 ft | 291 kts | 177° |
| 2026-04-29 02:51 | 29.22106 | -81.21044 | 7390 ft | 290 kts | 176° |
| 2026-04-29 02:51 | 29.20095 | -81.20910 | 7151 ft | 289 kts | 176° |
| 2026-04-29 02:52 | 29.18092 | -81.20766 | 6918 ft | 288 kts | 175° |
| 2026-04-29 02:52 | 29.16100 | -81.20620 | 6703 ft | 286 kts | 175° |
| 2026-04-29 02:52 | 29.14115 | -81.20479 | 6466 ft | 285 kts | 175° |
| 2026-04-29 02:52 | 29.12136 | -81.20341 | 6227 ft | 284 kts | 176° |
| 2026-04-29 02:53 | 29.10164 | -81.20251 | 5973 ft | 283 kts | 178° |
| 2026-04-29 02:53 | 29.08200 | -81.20222 | 5776 ft | 282 kts | 179° |
| 2026-04-29 02:53 | 29.06235 | -81.20218 | 5594 ft | 282 kts | 180° |
| 2026-04-29 02:53 | 29.04296 | -81.20449 | 5423 ft | 280 kts | 196° |
| 2026-04-29 02:54 | 29.02533 | -81.21357 | 5263 ft | 278 kts | 215° |
| 2026-04-29 02:54 | 29.01123 | -81.22843 | 5086 ft | 276 kts | 233° |
| 2026-04-29 02:54 | 29.00058 | -81.24651 | 4926 ft | 274 kts | 238° |
| 2026-04-29 02:54 | 28.99017 | -81.26462 | 4762 ft | 272 kts | 238° |
| 2026-04-29 02:55 | 28.97977 | -81.28263 | 4574 ft | 271 kts | 237° |
| 2026-04-29 02:55 | 28.96940 | -81.30057 | 4405 ft | 270 kts | 237° |
| 2026-04-29 02:55 | 28.95914 | -81.31824 | 4233 ft | 262 kts | 237° |
| 2026-04-29 02:55 | 28.94928 | -81.33522 | 4056 ft | 251 kts | 237° |
| 2026-04-29 02:56 | 28.93980 | -81.35154 | 3885 ft | 242 kts | 237° |
| 2026-04-29 02:56 | 28.93065 | -81.36728 | 3714 ft | 234 kts | 237° |
| 2026-04-29 02:56 | 28.92179 | -81.38253 | 3562 ft | 228 kts | 237° |
| 2026-04-29 02:56 | 28.91303 | -81.39759 | 3453 ft | 227 kts | 237° |
| 2026-04-29 02:57 | 28.90431 | -81.41263 | 3353 ft | 227 kts | 237° |
| 2026-04-29 02:57 | 28.89561 | -81.42762 | 3232 ft | 226 kts | 237° |
| 2026-04-29 02:57 | 28.88631 | -81.44178 | 3140 ft | 219 kts | 224° |
| 2026-04-29 02:57 | 28.87391 | -81.45114 | 3038 ft | 211 kts | 202° |
| 2026-04-29 02:58 | 28.85986 | -81.45473 | 2917 ft | 205 kts | 181° |
| 2026-04-29 02:58 | 28.84567 | -81.45467 | 2809 ft | 203 kts | 180° |
| 2026-04-29 02:58 | 28.83180 | -81.45460 | 2700 ft | 201 kts | 180° |
| 2026-04-29 02:58 | 28.81783 | -81.45456 | 2583 ft | 200 kts | 179° |
| 2026-04-29 02:59 | 28.80393 | -81.45439 | 2472 ft | 199 kts | 174° |
| 2026-04-29 02:59 | 28.79118 | -81.44915 | 2370 ft | 196 kts | 142° |
| 2026-04-29 02:59 | 28.78309 | -81.43741 | 2283 ft | 185 kts | 112° |
| 2026-04-29 02:59 | 28.78123 | -81.42332 | 2167 ft | 179 kts | 90° |
| 2026-04-29 03:00 | 28.78133 | -81.40932 | 2067 ft | 176 kts | 91° |
| 2026-04-29 03:00 | 28.78136 | -81.39547 | 1974 ft | 175 kts | 91° |
| 2026-04-29 03:00 | 28.78139 | -81.38164 | 1886 ft | 174 kts | 91° |
| 2026-04-29 03:00 | 28.78142 | -81.36795 | 1787 ft | 173 kts | 91° |
| 2026-04-29 03:01 | 28.78146 | -81.35425 | 1695 ft | 171 kts | 91° |
| 2026-04-29 03:01 | 28.78152 | -81.34142 | 1623 ft | 155 kts | 91° |
| 2026-04-29 03:01 | 28.78158 | -81.32934 | 1436 ft | 150 kts | 92° |
| 2026-04-29 03:01 | 28.78161 | -81.31768 | 1231 ft | 146 kts | 92° |
| 2026-04-29 03:02 | 28.78163 | -81.30616 | 1035 ft | 145 kts | 92° |
| 2026-04-29 03:02 | 28.78167 | -81.29476 | 831 ft | 143 kts | 92° |
| 2026-04-29 03:02 | 28.78169 | -81.28344 | 636 ft | 142 kts | 91° |
| 2026-04-29 03:02 | 28.78170 | -81.27216 | 440 ft | 142 kts | 91° |
| 2026-04-29 03:03 | 28.78171 | -81.26092 | 238 ft | 141 kts | 90° |
| 2026-04-29 03:03 | 28.78176 | -81.24972 | 72 ft | 141 kts | 90° |
| 2026-04-29 03:03 | 28.78175 | -81.24051 | 10 ft | 77 kts | 90° |
| 2026-04-29 03:03 | 28.78176 | -81.23588 | 65 ft | 34 kts | 90° |
| 2026-04-29 03:04 | 28.78161 | -81.23480 | 57 ft | 6 kts | 152° |
| 2026-04-29 03:04 | 28.78100 | -81.23478 | 58 ft | 10 kts | 181° |
| 2026-04-29 03:04 | 28.78019 | -81.23478 | 62 ft | 14 kts | 180° |
| 2026-04-29 03:04 | 28.77915 | -81.23479 | 59 ft | 16 kts | 180° |
| 2026-04-29 03:05 | 28.77804 | -81.23479 | 60 ft | 11 kts | 181° |
| 2026-04-29 03:05 | 28.77765 | -81.23533 | 63 ft | 9 kts | 268° |
| 2026-04-29 03:05 | 28.77764 | -81.23613 | 64 ft | 14 kts | 270° |
| 2026-04-29 03:05 | 28.77764 | -81.23730 | 64 ft | 16 kts | 270° |
| 2026-04-29 03:06 | 28.77764 | -81.23845 | 64 ft | 13 kts | 270° |
| 2026-04-29 03:06 | 28.77764 | -81.23948 | 64 ft | 13 kts | 270° |
| 2026-04-29 03:06 | 28.77764 | -81.24057 | 64 ft | 14 kts | 270° |
| 2026-04-29 03:06 | 28.77763 | -81.24162 | 64 ft | 7 kts | 270° |
| 2026-04-29 03:07 | 28.77754 | -81.24201 | 59 ft | 7 kts | 225° |
| 2026-04-29 03:07 | 28.77704 | -81.24208 | 57 ft | 7 kts | 180° |
| 2026-04-29 03:07 | 28.77664 | -81.24197 | 60 ft | 5 kts | 147° |
| 2026-04-29 03:07 | 28.77641 | -81.24159 | 57 ft | 4 kts | 119° |
| 2026-04-29 03:08 | 28.77632 | -81.24141 | 60 ft | 2 kts | 118° |
| 2026-04-29 03:08 | 28.77630 | -81.24137 | 56 ft | 0 kts | 118° |